SLJE/SJS METAR and TAF weather

Enter ICAO airport designator
Station Type Date Time Source
SLJE METAR 2019/04/24 22:00 UTC NOAA

SLJE 242200Z 00000KT 9999 BKN015 OVC200 24/23 Q1015


Station Type Date Time Source
SLJE Decoded METAR 2019/04/24 22:00 UTC NOAA

San Jose De Chiquitos, Bolivia (SLJE) 17-48S 060-44W
Apr 24, 2019 - 06:00 PM EDT / 2019.04.24 2200 UTC
Wind: Calm:0
Visibility: greater than 7 mile(s):0
Sky conditions: overcast
Temperature: 75 F (24 C)
Dew Point: 73 F (23 C)
Relative Humidity: 94%
Pressure (altimeter): 29.97 in. Hg (1015 hPa)
ob: SLJE 242200Z 00000KT 9999 BKN015 OVC200 24/23 Q1015
cycle: 22

Station Type Date Time Source
SLJE TAF 2009/01/07 11:00 UTC NOAA

METAR SLJE 071100Z 00000KT 9999 SKC 21/18 Q1014

Example: see airport list